Deatsville, Alabama
Current Conditions -  °F | °C
As of 10:15 AM on Monday 24 Nov 2014 (Local Time) from K1A9 Reporting Station
Scattered Clouds Scattered Clouds  
Wind Chill: 71°   Ceiling: Unl
Heat Index: 71°   Visibility: 10mi
Dew Point: 58°   Wind: 12mph
Humidity: 66%   Direction: 260°W
Pressure: 29.83"   Gusts: 16mph
Location:  32.61°N, 86.4°W
Report Text: K1A9 241615Z AUTO 26010G14KT 10SM SCT027 SCT031 21/15 A2983 RMK AO2 T02140147
Loading
Personal Weather Stations






























Interactive Weather Map New forecast layout! Learn more

10-Day Weather Forecast

Advertisements
Track Severe Weather on mobile